sensor_id;sensor_type;location;lat;lon;timestamp;P1;durP1;ratioP1;P2;durP2;ratioP2
5961;SDS011;3007;50.770;0.250;2022-12-07T00:01:39;15.60;;;9.47;;
5961;SDS011;3007;50.770;0.250;2022-12-07T00:04:08;17.00;;;9.43;;
5961;SDS011;3007;50.770;0.250;2022-12-07T00:06:38;16.23;;;9.00;;
5961;SDS011;3007;50.770;0.250;2022-12-07T00:09:09;15.17;;;8.80;;
5961;SDS011;3007;50.770;0.250;2022-12-07T00:11:38;13.77;;;8.20;;
5961;SDS011;3007;50.770;0.250;2022-12-07T00:14:06;15.43;;;8.40;;
5961;SDS011;3007;50.770;0.250;2022-12-07T00:16:36;14.53;;;8.77;;
5961;SDS011;3007;50.770;0.250;2022-12-07T00:19:03;12.97;;;8.47;;
5961;SDS011;3007;50.770;0.250;2022-12-07T00:21:31;11.37;;;8.90;;
5961;SDS011;3007;50.770;0.250;2022-12-07T00:23:59;14.50;;;8.40;;
5961;SDS011;3007;50.770;0.250;2022-12-07T00:26:29;23.57;;;9.70;;
5961;SDS011;3007;50.770;0.250;2022-12-07T00:28:58;17.03;;;8.80;;
5961;SDS011;3007;50.770;0.250;2022-12-07T00:31:27;15.03;;;8.90;;
5961;SDS011;3007;50.770;0.250;2022-12-07T00:33:56;13.27;;;8.30;;
5961;SDS011;3007;50.770;0.250;2022-12-07T00:36:24;14.93;;;8.50;;
5961;SDS011;3007;50.770;0.250;2022-12-07T00:38:53;15.53;;;8.37;;
5961;SDS011;3007;50.770;0.250;2022-12-07T00:41:21;14.23;;;8.97;;
5961;SDS011;3007;50.770;0.250;2022-12-07T00:43:51;16.63;;;7.03;;
5961;SDS011;3007;50.770;0.250;2022-12-07T00:46:19;14.73;;;7.37;;
5961;SDS011;3007;50.770;0.250;2022-12-07T00:48:47;13.13;;;7.53;;
5961;SDS011;3007;50.770;0.250;2022-12-07T00:51:16;13.57;;;7.97;;
5961;SDS011;3007;50.770;0.250;2022-12-07T00:53:45;11.57;;;7.70;;
5961;SDS011;3007;50.770;0.250;2022-12-07T00:56:12;12.13;;;7.67;;
5961;SDS011;3007;50.770;0.250;2022-12-07T00:58:41;17.17;;;7.80;;
5961;SDS011;3007;50.770;0.250;2022-12-07T01:01:10;11.37;;;6.93;;
5961;SDS011;3007;50.770;0.250;2022-12-07T01:03:37;13.47;;;7.50;;
5961;SDS011;3007;50.770;0.250;2022-12-07T01:06:04;11.70;;;7.60;;
5961;SDS011;3007;50.770;0.250;2022-12-07T01:08:32;13.80;;;7.00;;
5961;SDS011;3007;50.770;0.250;2022-12-07T01:11:00;14.73;;;6.87;;
5961;SDS011;3007;50.770;0.250;2022-12-07T01:13:29;17.73;;;6.90;;
5961;SDS011;3007;50.770;0.250;2022-12-07T01:15:57;15.30;;;7.30;;
5961;SDS011;3007;50.770;0.250;2022-12-07T01:18:27;13.50;;;6.87;;
5961;SDS011;3007;50.770;0.250;2022-12-07T01:21:00;12.33;;;6.23;;
5961;SDS011;3007;50.770;0.250;2022-12-07T01:23:29;16.27;;;7.10;;
5961;SDS011;3007;50.770;0.250;2022-12-07T01:25:57;13.50;;;6.63;;
5961;SDS011;3007;50.770;0.250;2022-12-07T01:28:25;14.17;;;6.30;;
5961;SDS011;3007;50.770;0.250;2022-12-07T01:31:00;14.00;;;6.30;;
5961;SDS011;3007;50.770;0.250;2022-12-07T01:33:29;11.77;;;6.87;;
5961;SDS011;3007;50.770;0.250;2022-12-07T01:36:00;16.30;;;7.03;;
5961;SDS011;3007;50.770;0.250;2022-12-07T01:38:29;19.03;;;7.67;;
5961;SDS011;3007;50.770;0.250;2022-12-07T01:40:58;14.07;;;6.40;;
5961;SDS011;3007;50.770;0.250;2022-12-07T01:43:27;15.83;;;5.77;;
5961;SDS011;3007;50.770;0.250;2022-12-07T01:45:56;15.90;;;6.53;;
5961;SDS011;3007;50.770;0.250;2022-12-07T01:48:24;12.77;;;5.47;;
5961;SDS011;3007;50.770;0.250;2022-12-07T01:50:55;10.40;;;6.50;;
5961;SDS011;3007;50.770;0.250;2022-12-07T01:53:26;13.67;;;6.57;;
5961;SDS011;3007;50.770;0.250;2022-12-07T01:55:56;14.90;;;6.77;;
5961;SDS011;3007;50.770;0.250;2022-12-07T01:58:25;9.87;;;6.23;;
5961;SDS011;3007;50.770;0.250;2022-12-07T02:00:52;13.10;;;6.77;;
5961;SDS011;3007;50.770;0.250;2022-12-07T02:03:22;20.13;;;6.87;;
5961;SDS011;3007;50.770;0.250;2022-12-07T02:05:55;16.03;;;7.17;;
5961;SDS011;3007;50.770;0.250;2022-12-07T02:08:24;15.70;;;6.90;;
5961;SDS011;3007;50.770;0.250;2022-12-07T02:10:52;14.80;;;6.93;;
5961;SDS011;3007;50.770;0.250;2022-12-07T02:13:20;17.40;;;6.67;;
5961;SDS011;3007;50.770;0.250;2022-12-07T02:18:42;14.03;;;7.30;;
5961;SDS011;3007;50.770;0.250;2022-12-07T02:21:19;18.23;;;8.43;;
5961;SDS011;3007;50.770;0.250;2022-12-07T02:24:14;14.60;;;8.20;;
5961;SDS011;3007;50.770;0.250;2022-12-07T02:29:59;14.00;;;7.80;;
5961;SDS011;3007;50.770;0.250;2022-12-07T02:32:30;11.10;;;7.63;;
5961;SDS011;3007;50.770;0.250;2022-12-07T02:35:07;14.60;;;8.07;;
5961;SDS011;3007;50.770;0.250;2022-12-07T02:37:38;15.60;;;8.57;;
5961;SDS011;3007;50.770;0.250;2022-12-07T02:40:09;15.50;;;8.10;;
5961;SDS011;3007;50.770;0.250;2022-12-07T02:42:42;16.57;;;8.77;;
5961;SDS011;3007;50.770;0.250;2022-12-07T02:45:15;19.33;;;8.47;;
5961;SDS011;3007;50.770;0.250;2022-12-07T02:47:46;16.73;;;8.80;;
5961;SDS011;3007;50.770;0.250;2022-12-07T02:50:17;18.13;;;8.77;;
5961;SDS011;3007;50.770;0.250;2022-12-07T02:52:45;16.50;;;8.97;;
5961;SDS011;3007;50.770;0.250;2022-12-07T02:55:13;15.40;;;8.70;;
5961;SDS011;3007;50.770;0.250;2022-12-07T02:57:48;16.27;;;8.17;;
5961;SDS011;3007;50.770;0.250;2022-12-07T03:00:34;17.30;;;9.67;;
5961;SDS011;3007;50.770;0.250;2022-12-07T03:03:11;17.40;;;9.47;;
5961;SDS011;3007;50.770;0.250;2022-12-07T03:05:44;16.83;;;9.80;;
5961;SDS011;3007;50.770;0.250;2022-12-07T03:08:31;18.93;;;9.07;;
5961;SDS011;3007;50.770;0.250;2022-12-07T03:11:06;19.53;;;8.80;;
5961;SDS011;3007;50.770;0.250;2022-12-07T03:13:37;15.50;;;9.00;;
5961;SDS011;3007;50.770;0.250;2022-12-07T03:16:11;14.60;;;8.63;;
5961;SDS011;3007;50.770;0.250;2022-12-07T03:18:42;15.80;;;8.30;;
5961;SDS011;3007;50.770;0.250;2022-12-07T03:21:13;17.90;;;7.80;;
5961;SDS011;3007;50.770;0.250;2022-12-07T03:23:44;15.60;;;8.83;;
5961;SDS011;3007;50.770;0.250;2022-12-07T03:26:15;13.07;;;7.73;;
5961;SDS011;3007;50.770;0.250;2022-12-07T03:28:47;11.37;;;7.40;;
5961;SDS011;3007;50.770;0.250;2022-12-07T03:31:19;23.07;;;7.73;;
5961;SDS011;3007;50.770;0.250;2022-12-07T03:33:49;15.57;;;8.23;;
5961;SDS011;3007;50.770;0.250;2022-12-07T03:36:24;12.17;;;7.00;;
5961;SDS011;3007;50.770;0.250;2022-12-07T03:38:57;14.07;;;7.20;;
5961;SDS011;3007;50.770;0.250;2022-12-07T03:41:30;13.60;;;7.70;;
5961;SDS011;3007;50.770;0.250;2022-12-07T03:44:01;21.43;;;8.20;;
5961;SDS011;3007;50.770;0.250;2022-12-07T03:46:34;18.87;;;8.10;;
5961;SDS011;3007;50.770;0.250;2022-12-07T03:49:07;17.17;;;7.60;;
5961;SDS011;3007;50.770;0.250;2022-12-07T03:51:39;16.63;;;8.23;;
5961;SDS011;3007;50.770;0.250;2022-12-07T03:54:13;12.83;;;7.80;;
5961;SDS011;3007;50.770;0.250;2022-12-07T03:56:43;14.37;;;7.53;;
5961;SDS011;3007;50.770;0.250;2022-12-07T03:59:12;21.13;;;8.37;;
5961;SDS011;3007;50.770;0.250;2022-12-07T04:01:42;13.33;;;8.17;;
5961;SDS011;3007;50.770;0.250;2022-12-07T04:04:10;12.93;;;7.20;;
5961;SDS011;3007;50.770;0.250;2022-12-07T04:06:37;16.00;;;8.10;;
5961;SDS011;3007;50.770;0.250;2022-12-07T04:09:05;18.70;;;8.27;;
5961;SDS011;3007;50.770;0.250;2022-12-07T04:11:32;13.60;;;7.43;;
5961;SDS011;3007;50.770;0.250;2022-12-07T04:13:59;17.47;;;8.70;;
5961;SDS011;3007;50.770;0.250;2022-12-07T04:16:46;14.50;;;7.67;;
5961;SDS011;3007;50.770;0.250;2022-12-07T04:19:14;14.87;;;7.70;;
5961;SDS011;3007;50.770;0.250;2022-12-07T04:21:42;15.00;;;8.30;;
5961;SDS011;3007;50.770;0.250;2022-12-07T04:24:09;18.87;;;8.63;;
5961;SDS011;3007;50.770;0.250;2022-12-07T04:26:37;12.37;;;7.23;;
5961;SDS011;3007;50.770;0.250;2022-12-07T04:29:04;18.27;;;8.43;;
5961;SDS011;3007;50.770;0.250;2022-12-07T04:31:31;17.60;;;9.10;;
5961;SDS011;3007;50.770;0.250;2022-12-07T04:34:00;14.83;;;7.60;;
5961;SDS011;3007;50.770;0.250;2022-12-07T04:36:27;19.70;;;7.60;;
5961;SDS011;3007;50.770;0.250;2022-12-07T04:38:54;13.57;;;8.03;;
5961;SDS011;3007;50.770;0.250;2022-12-07T04:41:22;17.87;;;8.60;;
5961;SDS011;3007;50.770;0.250;2022-12-07T04:43:53;19.77;;;8.77;;
5961;SDS011;3007;50.770;0.250;2022-12-07T04:46:21;10.73;;;7.90;;
5961;SDS011;3007;50.770;0.250;2022-12-07T04:48:49;13.83;;;9.10;;
5961;SDS011;3007;50.770;0.250;2022-12-07T04:51:18;18.67;;;8.30;;
5961;SDS011;3007;50.770;0.250;2022-12-07T04:53:47;18.37;;;8.70;;
5961;SDS011;3007;50.770;0.250;2022-12-07T04:56:15;15.17;;;8.90;;
5961;SDS011;3007;50.770;0.250;2022-12-07T04:58:43;17.10;;;8.67;;
5961;SDS011;3007;50.770;0.250;2022-12-07T05:01:11;14.17;;;8.57;;
5961;SDS011;3007;50.770;0.250;2022-12-07T05:03:38;14.57;;;7.53;;
5961;SDS011;3007;50.770;0.250;2022-12-07T05:06:06;19.90;;;8.80;;
5961;SDS011;3007;50.770;0.250;2022-12-07T05:08:35;18.70;;;9.43;;
5961;SDS011;3007;50.770;0.250;2022-12-07T05:11:03;17.97;;;8.60;;
5961;SDS011;3007;50.770;0.250;2022-12-07T05:13:31;13.77;;;8.47;;
5961;SDS011;3007;50.770;0.250;2022-12-07T05:15:59;20.37;;;9.80;;
5961;SDS011;3007;50.770;0.250;2022-12-07T05:18:26;16.97;;;9.70;;
5961;SDS011;3007;50.770;0.250;2022-12-07T05:20:53;16.90;;;10.37;;
5961;SDS011;3007;50.770;0.250;2022-12-07T05:23:20;24.60;;;9.83;;
5961;SDS011;3007;50.770;0.250;2022-12-07T05:25:49;17.73;;;9.97;;
5961;SDS011;3007;50.770;0.250;2022-12-07T05:28:16;16.13;;;10.53;;
5961;SDS011;3007;50.770;0.250;2022-12-07T05:30:43;16.87;;;10.40;;
5961;SDS011;3007;50.770;0.250;2022-12-07T05:33:10;14.23;;;10.33;;
5961;SDS011;3007;50.770;0.250;2022-12-07T05:35:37;18.63;;;10.37;;
5961;SDS011;3007;50.770;0.250;2022-12-07T05:38:05;14.90;;;10.20;;
5961;SDS011;3007;50.770;0.250;2022-12-07T05:40:32;18.00;;;10.27;;
5961;SDS011;3007;50.770;0.250;2022-12-07T05:43:01;15.77;;;10.00;;
5961;SDS011;3007;50.770;0.250;2022-12-07T05:45:28;18.53;;;10.60;;
5961;SDS011;3007;50.770;0.250;2022-12-07T05:47:55;22.70;;;11.13;;
5961;SDS011;3007;50.770;0.250;2022-12-07T05:50:22;19.87;;;10.57;;
5961;SDS011;3007;50.770;0.250;2022-12-07T05:52:49;18.77;;;11.53;;
5961;SDS011;3007;50.770;0.250;2022-12-07T05:55:16;23.23;;;11.07;;
5961;SDS011;3007;50.770;0.250;2022-12-07T05:57:44;19.20;;;9.90;;
5961;SDS011;3007;50.770;0.250;2022-12-07T06:00:32;18.20;;;10.47;;
5961;SDS011;3007;50.770;0.250;2022-12-07T06:02:58;16.70;;;10.70;;
5961;SDS011;3007;50.770;0.250;2022-12-07T06:05:26;21.83;;;10.07;;
5961;SDS011;3007;50.770;0.250;2022-12-07T06:07:53;18.73;;;9.97;;
5961;SDS011;3007;50.770;0.250;2022-12-07T06:10:20;15.00;;;8.97;;
5961;SDS011;3007;50.770;0.250;2022-12-07T06:12:47;15.23;;;8.83;;
5961;SDS011;3007;50.770;0.250;2022-12-07T06:15:13;18.90;;;9.53;;
5961;SDS011;3007;50.770;0.250;2022-12-07T06:17:42;16.40;;;9.53;;
5961;SDS011;3007;50.770;0.250;2022-12-07T06:20:09;17.10;;;9.80;;
5961;SDS011;3007;50.770;0.250;2022-12-07T06:22:36;20.93;;;9.73;;
5961;SDS011;3007;50.770;0.250;2022-12-07T06:25:03;17.33;;;10.17;;
5961;SDS011;3007;50.770;0.250;2022-12-07T06:27:32;18.97;;;10.10;;
5961;SDS011;3007;50.770;0.250;2022-12-07T06:30:00;17.40;;;9.50;;
5961;SDS011;3007;50.770;0.250;2022-12-07T06:32:31;17.50;;;10.13;;
5961;SDS011;3007;50.770;0.250;2022-12-07T06:35:00;15.87;;;10.07;;
5961;SDS011;3007;50.770;0.250;2022-12-07T06:37:27;20.03;;;11.40;;
5961;SDS011;3007;50.770;0.250;2022-12-07T06:39:54;18.17;;;10.63;;
5961;SDS011;3007;50.770;0.250;2022-12-07T06:42:21;24.77;;;10.70;;
5961;SDS011;3007;50.770;0.250;2022-12-07T06:44:48;18.17;;;11.27;;
5961;SDS011;3007;50.770;0.250;2022-12-07T06:47:15;19.70;;;10.23;;
5961;SDS011;3007;50.770;0.250;2022-12-07T06:49:43;15.17;;;10.43;;
5961;SDS011;3007;50.770;0.250;2022-12-07T06:52:14;17.43;;;11.40;;
5961;SDS011;3007;50.770;0.250;2022-12-07T06:54:41;19.83;;;10.67;;
5961;SDS011;3007;50.770;0.250;2022-12-07T06:57:08;20.03;;;11.40;;
5961;SDS011;3007;50.770;0.250;2022-12-07T06:59:36;18.43;;;10.93;;
5961;SDS011;3007;50.770;0.250;2022-12-07T07:02:03;17.53;;;9.13;;
5961;SDS011;3007;50.770;0.250;2022-12-07T07:04:30;16.43;;;10.87;;
5961;SDS011;3007;50.770;0.250;2022-12-07T07:06:57;23.60;;;10.07;;
5961;SDS011;3007;50.770;0.250;2022-12-07T07:09:26;17.37;;;9.17;;
5961;SDS011;3007;50.770;0.250;2022-12-07T07:11:52;19.10;;;9.93;;
5961;SDS011;3007;50.770;0.250;2022-12-07T07:14:20;16.53;;;8.57;;
5961;SDS011;3007;50.770;0.250;2022-12-07T07:16:47;19.97;;;10.20;;
5961;SDS011;3007;50.770;0.250;2022-12-07T07:19:14;16.63;;;10.23;;
5961;SDS011;3007;50.770;0.250;2022-12-07T07:21:41;15.33;;;9.77;;
5961;SDS011;3007;50.770;0.250;2022-12-07T07:24:09;18.77;;;9.40;;
5961;SDS011;3007;50.770;0.250;2022-12-07T07:26:37;20.17;;;10.60;;
5961;SDS011;3007;50.770;0.250;2022-12-07T07:29:07;20.60;;;12.40;;
5961;SDS011;3007;50.770;0.250;2022-12-07T07:31:34;20.20;;;10.27;;
5961;SDS011;3007;50.770;0.250;2022-12-07T07:34:02;19.00;;;10.33;;
5961;SDS011;3007;50.770;0.250;2022-12-07T07:36:29;18.93;;;10.00;;
5961;SDS011;3007;50.770;0.250;2022-12-07T07:38:56;17.87;;;10.60;;
5961;SDS011;3007;50.770;0.250;2022-12-07T07:41:23;19.10;;;10.70;;
5961;SDS011;3007;50.770;0.250;2022-12-07T07:43:55;20.07;;;10.80;;
5961;SDS011;3007;50.770;0.250;2022-12-07T07:46:22;19.67;;;10.77;;
5961;SDS011;3007;50.770;0.250;2022-12-07T07:48:49;17.50;;;10.20;;
5961;SDS011;3007;50.770;0.250;2022-12-07T07:51:16;15.37;;;9.53;;
5961;SDS011;3007;50.770;0.250;2022-12-07T07:53:43;23.30;;;10.40;;
5961;SDS011;3007;50.770;0.250;2022-12-07T07:56:11;20.10;;;10.77;;
5961;SDS011;3007;50.770;0.250;2022-12-07T07:58:38;15.83;;;10.37;;
5961;SDS011;3007;50.770;0.250;2022-12-07T08:01:07;21.03;;;10.83;;
5961;SDS011;3007;50.770;0.250;2022-12-07T08:03:34;16.93;;;11.00;;
5961;SDS011;3007;50.770;0.250;2022-12-07T08:06:02;17.20;;;10.10;;
5961;SDS011;3007;50.770;0.250;2022-12-07T08:08:29;16.83;;;9.77;;
5961;SDS011;3007;50.770;0.250;2022-12-07T08:10:57;18.83;;;10.63;;
5961;SDS011;3007;50.770;0.250;2022-12-07T08:13:25;18.27;;;10.63;;
5961;SDS011;3007;50.770;0.250;2022-12-07T08:15:53;14.60;;;10.30;;
5961;SDS011;3007;50.770;0.250;2022-12-07T08:18:21;17.47;;;9.70;;
5961;SDS011;3007;50.770;0.250;2022-12-07T08:20:48;19.10;;;9.27;;
5961;SDS011;3007;50.770;0.250;2022-12-07T08:23:16;20.60;;;11.20;;
5961;SDS011;3007;50.770;0.250;2022-12-07T08:25:43;17.83;;;10.30;;
5961;SDS011;3007;50.770;0.250;2022-12-07T08:28:10;16.80;;;10.40;;
5961;SDS011;3007;50.770;0.250;2022-12-07T08:30:37;19.57;;;8.17;;
5961;SDS011;3007;50.770;0.250;2022-12-07T08:33:04;19.13;;;8.97;;
5961;SDS011;3007;50.770;0.250;2022-12-07T08:35:33;19.23;;;8.73;;
5961;SDS011;3007;50.770;0.250;2022-12-07T08:38:00;17.73;;;9.40;;
5961;SDS011;3007;50.770;0.250;2022-12-07T08:40:28;18.00;;;10.43;;
5961;SDS011;3007;50.770;0.250;2022-12-07T08:42:56;17.73;;;9.80;;
5961;SDS011;3007;50.770;0.250;2022-12-07T08:45:23;14.60;;;9.23;;
5961;SDS011;3007;50.770;0.250;2022-12-07T08:47:50;14.30;;;9.00;;
5961;SDS011;3007;50.770;0.250;2022-12-07T08:50:27;12.90;;;8.07;;
5961;SDS011;3007;50.770;0.250;2022-12-07T08:52:56;15.30;;;9.30;;
5961;SDS011;3007;50.770;0.250;2022-12-07T08:55:25;17.83;;;9.73;;
5961;SDS011;3007;50.770;0.250;2022-12-07T08:57:53;17.37;;;8.97;;
5961;SDS011;3007;50.770;0.250;2022-12-07T09:00:20;15.10;;;8.67;;
5961;SDS011;3007;50.770;0.250;2022-12-07T09:02:48;21.00;;;9.27;;
5961;SDS011;3007;50.770;0.250;2022-12-07T09:05:15;15.80;;;9.33;;
5961;SDS011;3007;50.770;0.250;2022-12-07T09:07:42;17.23;;;10.47;;
5961;SDS011;3007;50.770;0.250;2022-12-07T09:10:12;15.27;;;9.43;;
5961;SDS011;3007;50.770;0.250;2022-12-07T09:12:40;16.50;;;9.33;;
5961;SDS011;3007;50.770;0.250;2022-12-07T09:15:07;17.23;;;9.37;;
5961;SDS011;3007;50.770;0.250;2022-12-07T09:17:34;22.93;;;11.03;;
5961;SDS011;3007;50.770;0.250;2022-12-07T09:20:02;15.83;;;10.00;;
5961;SDS011;3007;50.770;0.250;2022-12-07T09:22:31;29.13;;;11.93;;
5961;SDS011;3007;50.770;0.250;2022-12-07T09:24:58;21.20;;;9.77;;
5961;SDS011;3007;50.770;0.250;2022-12-07T09:27:27;18.47;;;9.97;;
5961;SDS011;3007;50.770;0.250;2022-12-07T09:29:54;17.60;;;10.20;;
5961;SDS011;3007;50.770;0.250;2022-12-07T09:32:21;13.80;;;9.17;;
5961;SDS011;3007;50.770;0.250;2022-12-07T09:34:48;17.93;;;10.37;;
5961;SDS011;3007;50.770;0.250;2022-12-07T09:37:15;19.27;;;10.47;;
5961;SDS011;3007;50.770;0.250;2022-12-07T09:39:42;14.67;;;9.20;;
5961;SDS011;3007;50.770;0.250;2022-12-07T09:42:10;22.30;;;8.63;;
5961;SDS011;3007;50.770;0.250;2022-12-07T09:44:54;16.17;;;9.77;;
5961;SDS011;3007;50.770;0.250;2022-12-07T09:47:21;17.00;;;10.50;;
5961;SDS011;3007;50.770;0.250;2022-12-07T09:49:48;13.13;;;9.17;;
5961;SDS011;3007;50.770;0.250;2022-12-07T09:52:19;14.60;;;9.90;;
5961;SDS011;3007;50.770;0.250;2022-12-07T09:54:51;17.03;;;9.43;;
5961;SDS011;3007;50.770;0.250;2022-12-07T09:57:27;16.13;;;9.73;;
5961;SDS011;3007;50.770;0.250;2022-12-07T09:59:58;18.03;;;9.50;;
5961;SDS011;3007;50.770;0.250;2022-12-07T10:02:34;13.40;;;8.47;;
5961;SDS011;3007;50.770;0.250;2022-12-07T10:05:03;19.17;;;9.53;;
5961;SDS011;3007;50.770;0.250;2022-12-07T10:07:32;19.40;;;9.87;;
5961;SDS011;3007;50.770;0.250;2022-12-07T10:09:59;15.50;;;9.00;;
5961;SDS011;3007;50.770;0.250;2022-12-07T10:12:29;16.77;;;9.17;;
5961;SDS011;3007;50.770;0.250;2022-12-07T10:14:58;12.50;;;9.10;;
5961;SDS011;3007;50.770;0.250;2022-12-07T10:17:32;18.80;;;8.97;;
5961;SDS011;3007;50.770;0.250;2022-12-07T10:20:08;17.17;;;9.10;;
5961;SDS011;3007;50.770;0.250;2022-12-07T10:22:54;17.37;;;8.20;;
5961;SDS011;3007;50.770;0.250;2022-12-07T10:25:25;11.93;;;8.23;;
5961;SDS011;3007;50.770;0.250;2022-12-07T10:28:00;19.27;;;8.00;;
5961;SDS011;3007;50.770;0.250;2022-12-07T10:30:30;18.53;;;8.43;;
5961;SDS011;3007;50.770;0.250;2022-12-07T10:32:59;13.00;;;7.60;;
5961;SDS011;3007;50.770;0.250;2022-12-07T10:35:27;15.27;;;7.23;;
5961;SDS011;3007;50.770;0.250;2022-12-07T10:37:55;12.87;;;6.97;;
5961;SDS011;3007;50.770;0.250;2022-12-07T10:40:25;14.83;;;7.30;;
5961;SDS011;3007;50.770;0.250;2022-12-07T10:43:01;15.57;;;6.67;;
5961;SDS011;3007;50.770;0.250;2022-12-07T10:45:31;13.20;;;7.17;;
5961;SDS011;3007;50.770;0.250;2022-12-07T10:48:00;10.27;;;6.47;;
5961;SDS011;3007;50.770;0.250;2022-12-07T10:50:41;15.13;;;6.13;;
5961;SDS011;3007;50.770;0.250;2022-12-07T10:53:18;12.53;;;6.53;;
5961;SDS011;3007;50.770;0.250;2022-12-07T10:56:26;15.73;;;6.70;;
5961;SDS011;3007;50.770;0.250;2022-12-07T10:59:15;9.27;;;5.70;;
5961;SDS011;3007;50.770;0.250;2022-12-07T11:02:02;9.93;;;5.70;;
5961;SDS011;3007;50.770;0.250;2022-12-07T11:04:49;11.83;;;6.40;;
5961;SDS011;3007;50.770;0.250;2022-12-07T11:07:27;13.87;;;6.10;;
5961;SDS011;3007;50.770;0.250;2022-12-07T11:10:06;14.30;;;6.27;;
5961;SDS011;3007;50.770;0.250;2022-12-07T11:12:43;10.30;;;5.70;;
5961;SDS011;3007;50.770;0.250;2022-12-07T11:15:23;12.57;;;5.37;;
5961;SDS011;3007;50.770;0.250;2022-12-07T11:17:56;8.17;;;5.13;;
5961;SDS011;3007;50.770;0.250;2022-12-07T11:20:34;9.77;;;5.47;;
5961;SDS011;3007;50.770;0.250;2022-12-07T11:23:09;7.53;;;4.63;;
5961;SDS011;3007;50.770;0.250;2022-12-07T11:25:43;11.13;;;4.77;;
5961;SDS011;3007;50.770;0.250;2022-12-07T11:28:22;9.33;;;5.10;;
5961;SDS011;3007;50.770;0.250;2022-12-07T11:31:05;6.90;;;4.77;;
5961;SDS011;3007;50.770;0.250;2022-12-07T11:33:41;7.33;;;4.73;;
5961;SDS011;3007;50.770;0.250;2022-12-07T11:36:17;7.60;;;4.93;;
5961;SDS011;3007;50.770;0.250;2022-12-07T11:38:57;8.53;;;5.20;;
5961;SDS011;3007;50.770;0.250;2022-12-07T11:41:29;9.53;;;5.37;;
5961;SDS011;3007;50.770;0.250;2022-12-07T11:44:01;7.37;;;5.33;;
5961;SDS011;3007;50.770;0.250;2022-12-07T11:46:38;9.67;;;5.23;;
5961;SDS011;3007;50.770;0.250;2022-12-07T11:49:17;14.27;;;6.23;;
5961;SDS011;3007;50.770;0.250;2022-12-07T11:51:51;15.67;;;6.57;;
5961;SDS011;3007;50.770;0.250;2022-12-07T11:54:23;13.50;;;5.83;;
5961;SDS011;3007;50.770;0.250;2022-12-07T11:56:54;7.50;;;5.43;;
5961;SDS011;3007;50.770;0.250;2022-12-07T11:59:29;9.63;;;6.07;;
5961;SDS011;3007;50.770;0.250;2022-12-07T12:02:03;9.47;;;5.67;;
5961;SDS011;3007;50.770;0.250;2022-12-07T12:04:45;8.40;;;5.93;;
5961;SDS011;3007;50.770;0.250;2022-12-07T12:07:18;11.00;;;6.30;;
5961;SDS011;3007;50.770;0.250;2022-12-07T12:09:49;10.97;;;5.90;;
5961;SDS011;3007;50.770;0.250;2022-12-07T12:12:30;12.87;;;6.10;;
5961;SDS011;3007;50.770;0.250;2022-12-07T12:15:23;14.63;;;6.40;;
5961;SDS011;3007;50.770;0.250;2022-12-07T12:20:53;6.67;;;5.07;;
5961;SDS011;3007;50.770;0.250;2022-12-07T12:23:24;8.00;;;5.43;;
5961;SDS011;3007;50.770;0.250;2022-12-07T12:25:59;12.13;;;6.73;;
5961;SDS011;3007;50.770;0.250;2022-12-07T12:28:29;10.83;;;5.80;;
5961;SDS011;3007;50.770;0.250;2022-12-07T12:31:12;15.00;;;6.00;;
5961;SDS011;3007;50.770;0.250;2022-12-07T12:33:43;9.53;;;5.70;;
5961;SDS011;3007;50.770;0.250;2022-12-07T12:36:20;14.47;;;6.10;;
5961;SDS011;3007;50.770;0.250;2022-12-07T12:38:52;8.73;;;5.10;;
5961;SDS011;3007;50.770;0.250;2022-12-07T12:41:52;9.30;;;5.97;;
5961;SDS011;3007;50.770;0.250;2022-12-07T12:44:39;10.80;;;5.93;;
5961;SDS011;3007;50.770;0.250;2022-12-07T12:50:27;8.57;;;6.43;;
5961;SDS011;3007;50.770;0.250;2022-12-07T12:52:58;9.03;;;5.70;;
5961;SDS011;3007;50.770;0.250;2022-12-07T12:58:42;8.60;;;6.37;;
5961;SDS011;3007;50.770;0.250;2022-12-07T13:04:17;10.87;;;5.63;;
5961;SDS011;3007;50.770;0.250;2022-12-07T13:07:03;9.83;;;6.27;;
5961;SDS011;3007;50.770;0.250;2022-12-07T13:09:38;10.77;;;5.80;;
5961;SDS011;3007;50.770;0.250;2022-12-07T13:12:12;7.60;;;5.53;;
5961;SDS011;3007;50.770;0.250;2022-12-07T13:14:51;12.07;;;7.00;;
5961;SDS011;3007;50.770;0.250;2022-12-07T13:23:25;10.37;;;6.60;;
5961;SDS011;3007;50.770;0.250;2022-12-07T13:26:12;9.40;;;6.97;;
5961;SDS011;3007;50.770;0.250;2022-12-07T13:28:42;11.37;;;6.77;;
5961;SDS011;3007;50.770;0.250;2022-12-07T13:31:16;13.93;;;7.67;;
5961;SDS011;3007;50.770;0.250;2022-12-07T13:33:49;14.97;;;7.70;;
5961;SDS011;3007;50.770;0.250;2022-12-07T13:36:21;13.17;;;6.80;;
5961;SDS011;3007;50.770;0.250;2022-12-07T13:38:50;14.80;;;7.30;;
5961;SDS011;3007;50.770;0.250;2022-12-07T13:41:21;11.67;;;7.07;;
5961;SDS011;3007;50.770;0.250;2022-12-07T13:43:51;10.20;;;7.13;;
5961;SDS011;3007;50.770;0.250;2022-12-07T13:46:23;11.87;;;6.80;;
5961;SDS011;3007;50.770;0.250;2022-12-07T13:48:53;8.97;;;5.33;;
5961;SDS011;3007;50.770;0.250;2022-12-07T13:51:22;10.97;;;5.73;;
5961;SDS011;3007;50.770;0.250;2022-12-07T13:53:52;11.40;;;5.70;;
5961;SDS011;3007;50.770;0.250;2022-12-07T13:56:25;9.10;;;5.03;;
5961;SDS011;3007;50.770;0.250;2022-12-07T13:58:58;6.43;;;4.83;;
5961;SDS011;3007;50.770;0.250;2022-12-07T14:01:25;12.30;;;4.90;;
5961;SDS011;3007;50.770;0.250;2022-12-07T14:03:52;16.97;;;5.93;;
5961;SDS011;3007;50.770;0.250;2022-12-07T14:06:22;8.30;;;5.63;;
5961;SDS011;3007;50.770;0.250;2022-12-07T14:09:07;11.00;;;7.40;;
5961;SDS011;3007;50.770;0.250;2022-12-07T14:11:36;11.03;;;7.30;;
5961;SDS011;3007;50.770;0.250;2022-12-07T14:14:04;10.13;;;6.63;;
5961;SDS011;3007;50.770;0.250;2022-12-07T14:16:33;11.67;;;6.27;;
5961;SDS011;3007;50.770;0.250;2022-12-07T14:19:02;11.47;;;6.20;;
5961;SDS011;3007;50.770;0.250;2022-12-07T14:21:31;9.87;;;6.30;;
5961;SDS011;3007;50.770;0.250;2022-12-07T14:24:04;9.50;;;5.67;;
5961;SDS011;3007;50.770;0.250;2022-12-07T14:26:42;8.77;;;6.83;;
5961;SDS011;3007;50.770;0.250;2022-12-07T14:29:27;11.20;;;7.50;;
5961;SDS011;3007;50.770;0.250;2022-12-07T14:32:12;16.77;;;8.00;;
5961;SDS011;3007;50.770;0.250;2022-12-07T14:34:56;14.77;;;7.87;;
5961;SDS011;3007;50.770;0.250;2022-12-07T14:37:24;14.57;;;7.67;;
5961;SDS011;3007;50.770;0.250;2022-12-07T14:39:52;15.23;;;7.67;;
5961;SDS011;3007;50.770;0.250;2022-12-07T14:42:20;12.83;;;6.93;;
5961;SDS011;3007;50.770;0.250;2022-12-07T14:44:51;10.50;;;7.60;;
5961;SDS011;3007;50.770;0.250;2022-12-07T14:47:18;16.13;;;7.27;;
5961;SDS011;3007;50.770;0.250;2022-12-07T14:49:45;13.80;;;7.43;;
5961;SDS011;3007;50.770;0.250;2022-12-07T14:52:13;15.63;;;8.30;;
5961;SDS011;3007;50.770;0.250;2022-12-07T14:54:43;21.17;;;11.07;;
5961;SDS011;3007;50.770;0.250;2022-12-07T14:57:11;21.53;;;10.53;;
5961;SDS011;3007;50.770;0.250;2022-12-07T14:59:39;25.03;;;12.63;;
5961;SDS011;3007;50.770;0.250;2022-12-07T15:02:08;17.20;;;8.77;;
5961;SDS011;3007;50.770;0.250;2022-12-07T15:04:37;13.47;;;6.93;;
5961;SDS011;3007;50.770;0.250;2022-12-07T15:07:05;10.37;;;6.80;;
5961;SDS011;3007;50.770;0.250;2022-12-07T15:09:35;11.00;;;6.23;;
5961;SDS011;3007;50.770;0.250;2022-12-07T15:12:03;11.23;;;6.90;;
5961;SDS011;3007;50.770;0.250;2022-12-07T15:14:30;11.33;;;6.20;;
5961;SDS011;3007;50.770;0.250;2022-12-07T15:16:59;12.90;;;6.67;;
5961;SDS011;3007;50.770;0.250;2022-12-07T15:19:26;10.67;;;6.17;;
5961;SDS011;3007;50.770;0.250;2022-12-07T15:21:53;10.33;;;6.10;;
5961;SDS011;3007;50.770;0.250;2022-12-07T15:24:21;14.43;;;6.77;;
5961;SDS011;3007;50.770;0.250;2022-12-07T15:26:49;9.67;;;6.27;;
5961;SDS011;3007;50.770;0.250;2022-12-07T15:29:16;11.23;;;7.40;;
5961;SDS011;3007;50.770;0.250;2022-12-07T15:31:44;11.00;;;7.27;;
5961;SDS011;3007;50.770;0.250;2022-12-07T15:34:12;11.93;;;7.47;;
5961;SDS011;3007;50.770;0.250;2022-12-07T15:36:39;13.17;;;8.77;;
5961;SDS011;3007;50.770;0.250;2022-12-07T15:39:06;12.03;;;7.83;;
5961;SDS011;3007;50.770;0.250;2022-12-07T15:41:34;12.03;;;8.03;;
5961;SDS011;3007;50.770;0.250;2022-12-07T15:44:02;13.53;;;8.83;;
5961;SDS011;3007;50.770;0.250;2022-12-07T15:46:46;17.73;;;9.00;;